Time;durP1;ratioP1;P1;durP2;ratioP2;P2;SDS_P1;SDS_P2;PMS_P1;PMS_P2;Temp;Humidity;BMP_temperature;BMP_pressure;BME280_temperature;BME280_humidity;BME280_pressure;Samples;Min_cycle;Max_cycle;Signal;HPM_P1;HPM_P2
2021/08/29 00:02:02;;;;;;;7.73;6.93;;;15.40;99.90;;;;;;5012735;28;20270;-70
2021/08/29 00:04:27;;;;;;;6.67;6.07;;;15.40;99.90;;;;;;5013066;28;20582;-70
2021/08/29 00:06:53;;;;;;;7.50;6.57;;;15.40;99.90;;;;;;5012825;28;20174;-70
2021/08/29 00:09:18;;;;;;;11.43;6.30;;;15.40;99.90;;;;;;5012979;28;20578;-70
2021/08/29 00:11:44;;;;;;;6.27;5.67;;;15.40;99.90;;;;;;5013178;28;20279;-69
2021/08/29 00:14:09;;;;;;;8.00;6.30;;;15.50;99.90;;;;;;5013130;28;20168;-70
2021/08/29 00:16:35;;;;;;;6.87;6.20;;;15.40;99.90;;;;;;5012620;28;20189;-70
2021/08/29 00:19:01;;;;;;;6.57;5.97;;;15.50;99.90;;;;;;5012961;28;20183;-70
2021/08/29 00:21:26;;;;;;;7.10;6.40;;;15.50;99.90;;;;;;5012705;28;20239;-70
2021/08/29 00:23:52;;;;;;;7.40;6.70;;;15.40;99.90;;;;;;5012648;28;20193;-70
2021/08/29 00:26:17;;;;;;;6.77;6.10;;;15.50;99.90;;;;;;5012349;28;20185;-70
2021/08/29 00:28:43;;;;;;;6.70;6.10;;;15.50;99.90;;;;;;5012710;28;20169;-70
2021/08/29 00:31:09;;;;;;;6.90;6.20;;;15.40;99.90;;;;;;5012506;28;20184;-70
2021/08/29 00:33:34;;;;;;;7.07;5.93;;;15.40;99.90;;;;;;5013061;28;20205;-70
2021/08/29 00:36:00;;;;;;;7.50;6.73;;;15.40;99.90;;;;;;5012945;28;20279;-70
2021/08/29 00:38:25;;;;;;;6.23;5.63;;;15.40;99.90;;;;;;5013332;28;20631;-70
2021/08/29 00:40:51;;;;;;;7.10;6.47;;;15.50;99.90;;;;;;5013777;28;20669;-70
2021/08/29 00:43:21;;;;;;;10.73;6.63;;;15.40;99.90;;;;;;5013793;28;20230;-70
2021/08/29 00:45:46;;;;;;;7.10;6.13;;;15.40;99.90;;;;;;5012117;28;20419;-70
2021/08/29 00:48:13;;;;;;;7.90;7.07;;;15.40;99.90;;;;;;5012067;28;20409;-70
2021/08/29 00:50:45;;;;;;;9.00;6.47;;;15.50;99.90;;;;;;5012171;28;20172;-69
2021/08/29 00:53:16;;;;;;;5.63;5.13;;;15.40;99.90;;;;;;5012163;28;20430;-69
2021/08/29 00:55:41;;;;;;;6.67;5.97;;;15.50;99.90;;;;;;5012144;28;20416;-69
2021/08/29 00:58:07;;;;;;;7.20;6.27;;;15.50;99.90;;;;;;5011857;28;20434;-69
2021/08/29 01:00:34;;;;;;;7.70;6.67;;;15.50;99.90;;;;;;5011822;28;20327;-70
2021/08/29 01:03:00;;;;;;;6.80;6.10;;;15.50;99.90;;;;;;5011814;28;20191;-70
2021/08/29 01:05:34;;;;;;;6.60;6.00;;;15.50;99.90;;;;;;5012051;28;20410;-70
2021/08/29 01:08:02;;;;;;;6.70;5.33;;;15.50;99.90;;;;;;5011950;28;20534;-70
2021/08/29 01:10:44;;;;;;;8.20;6.27;;;15.50;99.90;;;;;;5012148;28;20409;-69
2021/08/29 01:13:17;;;;;;;6.83;6.23;;;15.50;99.90;;;;;;5011756;28;20436;-70
2021/08/29 01:15:46;;;;;;;6.23;5.53;;;15.50;99.90;;;;;;5011867;28;20439;-70
2021/08/29 01:18:14;;;;;;;6.93;6.30;;;15.50;99.90;;;;;;5012240;28;20466;-70
2021/08/29 01:20:56;;;;;;;6.80;6.20;;;15.50;99.90;;;;;;5011931;28;20981;-71
2021/08/29 01:23:23;;;;;;;6.20;5.60;;;15.50;99.90;;;;;;5012197;28;20481;-70
2021/08/29 01:25:55;;;;;;;6.97;6.10;;;15.50;99.90;;;;;;5013759;28;20450;-70
2021/08/29 01:28:24;;;;;;;5.93;5.33;;;15.50;99.90;;;;;;5013490;28;20400;-71
2021/08/29 01:30:50;;;;;;;5.87;5.33;;;15.50;99.90;;;;;;5013530;28;20781;-70
2021/08/29 01:33:18;;;;;;;5.83;5.33;;;15.50;99.90;;;;;;5013575;28;20529;-71
2021/08/29 01:35:43;;;;;;;5.67;5.17;;;15.50;99.90;;;;;;5013725;28;20466;-71
2021/08/29 01:38:10;;;;;;;5.63;5.13;;;15.50;99.90;;;;;;5013011;28;20411;-70
2021/08/29 01:40:37;;;;;;;6.70;5.60;;;15.40;99.90;;;;;;4993586;28;20655;-71
2021/08/29 01:43:04;;;;;;;5.17;4.63;;;15.40;99.90;;;;;;5011235;28;20424;-70
2021/08/29 01:45:31;;;;;;;6.07;5.47;;;15.40;99.90;;;;;;5011304;28;20517;-69
2021/08/29 01:47:58;;;;;;;5.70;5.20;;;15.40;99.90;;;;;;5011180;28;21023;-70
2021/08/29 01:50:25;;;;;;;4.77;4.40;;;15.40;99.90;;;;;;5011336;28;20403;-70
2021/08/29 01:52:50;;;;;;;5.20;4.70;;;15.40;99.90;;;;;;5011222;28;20424;-70
2021/08/29 01:55:16;;;;;;;5.27;4.77;;;15.40;99.90;;;;;;5011758;28;20503;-70
2021/08/29 01:57:41;;;;;;;5.73;4.80;;;15.40;99.90;;;;;;5011635;28;20172;-70
2021/08/29 02:00:08;;;;;;;4.57;4.17;;;15.40;99.90;;;;;;5011374;28;20235;-70
2021/08/29 02:02:34;;;;;;;4.57;4.20;;;15.40;99.90;;;;;;5011233;28;20208;-70
2021/08/29 02:04:59;;;;;;;4.37;4.00;;;15.30;99.90;;;;;;5011216;28;20492;-70
2021/08/29 02:07:34;;;;;;;5.60;4.63;;;15.30;99.90;;;;;;5011050;28;20170;-69
2021/08/29 02:10:03;;;;;;;5.70;4.37;;;15.40;99.90;;;;;;5011084;28;20178;-70
2021/08/29 02:12:32;;;;;;;4.83;4.40;;;15.40;99.90;;;;;;5010804;28;20431;-70
2021/08/29 02:15:25;;;;;;;5.30;4.40;;;15.30;99.90;;;;;;5011035;28;20412;-70
2021/08/29 02:17:52;;;;;;;5.00;4.60;;;15.30;99.90;;;;;;5010866;28;20611;-70
2021/08/29 02:20:21;;;;;;;5.77;5.27;;;15.30;99.90;;;;;;5010997;28;20408;-70
2021/08/29 02:22:47;;;;;;;3.90;3.60;;;15.30;99.90;;;;;;5010994;28;20514;-70
2021/08/29 02:25:13;;;;;;;3.50;3.23;;;15.30;99.90;;;;;;5011063;28;20965;-70
2021/08/29 02:27:40;;;;;;;4.80;4.40;;;15.40;99.90;;;;;;5010826;28;20408;-70
2021/08/29 02:30:08;;;;;;;4.60;4.20;;;15.40;99.90;;;;;;4993237;28;20165;-70
2021/08/29 02:32:36;;;;;;;4.40;4.10;;;15.30;99.90;;;;;;5010880;28;20526;-69
2021/08/29 02:35:03;;;;;;;3.93;3.63;;;15.30;99.90;;;;;;5011363;28;20422;-70
2021/08/29 02:37:30;;;;;;;4.17;3.80;;;15.30;99.90;;;;;;5009583;28;20411;-70
2021/08/29 02:39:57;;;;;;;4.03;3.40;;;15.30;99.90;;;;;;5011065;28;20451;-70
2021/08/29 02:42:23;;;;;;;5.00;3.80;;;15.30;99.90;;;;;;5010677;28;21024;-69
2021/08/29 02:44:49;;;;;;;3.77;3.47;;;15.20;99.90;;;;;;5010725;28;20400;-70
2021/08/29 02:47:15;;;;;;;3.00;2.80;;;15.30;99.90;;;;;;5010660;28;20259;-69
2021/08/29 02:49:41;;;;;;;3.50;3.00;;;15.30;99.90;;;;;;5011378;28;20432;-70
2021/08/29 02:52:07;;;;;;;3.50;3.20;;;15.20;99.90;;;;;;5013999;28;20201;-70
2021/08/29 02:54:35;;;;;;;2.93;2.73;;;15.20;99.90;;;;;;5014435;28;20783;-70
2021/08/29 02:57:02;;;;;;;2.60;2.40;;;15.20;99.90;;;;;;5014325;28;20598;-70
2021/08/29 02:59:28;;;;;;;3.10;2.80;;;15.20;99.90;;;;;;5014190;28;20415;-70
2021/08/29 03:01:53;;;;;;;3.00;2.80;;;15.20;99.90;;;;;;5013875;28;20532;-70
2021/08/29 03:04:19;;;;;;;2.40;2.20;;;15.20;99.90;;;;;;5014046;28;20175;-70
2021/08/29 03:06:44;;;;;;;2.13;2.00;;;15.10;99.90;;;;;;5013758;28;20275;-69
2021/08/29 03:09:10;;;;;;;2.53;2.33;;;15.20;99.90;;;;;;5014095;28;20165;-69
2021/08/29 03:11:37;;;;;;;2.83;2.60;;;15.20;99.90;;;;;;5014114;28;20174;-69
2021/08/29 03:14:03;;;;;;;3.60;2.60;;;15.20;99.90;;;;;;5013905;28;20221;-69
2021/08/29 03:16:30;;;;;;;2.53;2.33;;;15.20;99.90;;;;;;5013805;28;20581;-70
2021/08/29 03:18:58;;;;;;;3.00;2.80;;;15.10;99.90;;;;;;5013673;28;20190;-71
2021/08/29 03:21:23;;;;;;;2.80;2.60;;;15.10;99.90;;;;;;5013484;28;20570;-71
2021/08/29 03:23:49;;;;;;;2.63;2.43;;;15.10;99.90;;;;;;5013906;28;20514;-70
2021/08/29 03:26:15;;;;;;;2.50;2.30;;;15.00;99.90;;;;;;5013657;28;20671;-70
2021/08/29 03:28:41;;;;;;;2.17;1.97;;;15.00;99.90;;;;;;5013510;28;20177;-70
2021/08/29 03:31:06;;;;;;;2.30;2.10;;;15.10;99.90;;;;;;5013431;28;20528;-70
2021/08/29 03:33:34;;;;;;;3.00;2.80;;;15.10;99.90;;;;;;5013448;28;20197;-70
2021/08/29 03:36:00;;;;;;;2.33;2.13;;;15.10;99.90;;;;;;5013852;28;20181;-70
2021/08/29 03:38:27;;;;;;;2.93;2.30;;;15.10;99.90;;;;;;5013743;28;20400;-69
2021/08/29 03:40:53;;;;;;;1.87;1.77;;;15.10;99.90;;;;;;5013750;28;20463;-70
2021/08/29 03:43:19;;;;;;;1.90;1.80;;;15.00;99.90;;;;;;5013620;28;20779;-71
2021/08/29 03:45:45;;;;;;;2.00;1.83;;;15.00;99.90;;;;;;5013711;28;20411;-71
2021/08/29 03:48:10;;;;;;;1.67;1.57;;;15.00;99.90;;;;;;5013584;28;20199;-71
2021/08/29 03:50:37;;;;;;;1.67;1.57;;;15.00;99.90;;;;;;5013398;28;20187;-71
2021/08/29 03:53:03;;;;;;;2.33;2.13;;;15.10;99.90;;;;;;5013491;28;20189;-71
2021/08/29 03:55:29;;;;;;;1.77;1.63;;;15.10;99.90;;;;;;5013359;28;20410;-69
2021/08/29 03:57:56;;;;;;;1.73;1.63;;;15.00;99.90;;;;;;5013463;28;20510;-71
2021/08/29 04:00:22;;;;;;;2.80;2.20;;;15.00;99.90;;;;;;5013597;28;20407;-70
2021/08/29 04:02:48;;;;;;;1.70;1.60;;;15.00;99.90;;;;;;5012377;28;20423;-69
2021/08/29 04:05:14;;;;;;;1.70;1.60;;;15.00;99.90;;;;;;5012950;28;20411;-69
2021/08/29 04:07:42;;;;;;;2.10;2.00;;;15.00;99.90;;;;;;5013120;28;20216;-71
2021/08/29 04:10:08;;;;;;;1.80;1.70;;;15.00;99.90;;;;;;5013077;28;20412;-71
2021/08/29 04:12:36;;;;;;;2.63;2.43;;;15.00;99.90;;;;;;5012873;28;20969;-71
2021/08/29 04:15:02;;;;;;;1.40;1.30;;;15.00;99.90;;;;;;5013138;28;20450;-71
2021/08/29 04:17:31;;;;;;;1.87;1.77;;;14.90;99.90;;;;;;5012817;28;20740;-71
2021/08/29 04:19:57;;;;;;;3.53;2.70;;;15.00;99.90;;;;;;5013261;28;20189;-71
2021/08/29 04:22:23;;;;;;;2.60;2.40;;;14.90;99.90;;;;;;5012892;28;20828;-71
2021/08/29 04:24:49;;;;;;;1.70;1.60;;;15.00;99.90;;;;;;5012877;28;20427;-71
2021/08/29 04:27:14;;;;;;;3.40;2.10;;;15.00;99.90;;;;;;5013006;28;20164;-70
2021/08/29 04:29:40;;;;;;;2.20;2.03;;;14.90;99.90;;;;;;5012614;28;20255;-70
2021/08/29 04:32:06;;;;;;;1.90;1.70;;;14.90;99.90;;;;;;5012686;28;20232;-71
2021/08/29 04:34:32;;;;;;;2.00;1.90;;;14.90;99.90;;;;;;5012797;28;20183;-69
2021/08/29 04:36:57;;;;;;;1.73;1.63;;;15.00;99.90;;;;;;4994719;28;20446;-69
2021/08/29 04:39:23;;;;;;;2.37;2.17;;;15.00;99.90;;;;;;5012508;28;20640;-69
2021/08/29 04:41:48;;;;;;;2.10;1.83;;;15.00;99.90;;;;;;5012257;28;20200;-71
2021/08/29 04:44:13;;;;;;;1.63;1.53;;;15.00;99.90;;;;;;5012466;28;20172;-71
2021/08/29 04:46:39;;;;;;;2.27;2.00;;;15.00;99.90;;;;;;5012266;28;20169;-71
2021/08/29 04:49:05;;;;;;;2.27;1.93;;;14.90;99.90;;;;;;5012198;28;20472;-71
2021/08/29 04:51:30;;;;;;;2.63;2.13;;;15.00;99.90;;;;;;5012171;28;20640;-71
2021/08/29 04:53:56;;;;;;;1.97;1.87;;;15.00;99.90;;;;;;5012602;28;20280;-72
2021/08/29 04:56:22;;;;;;;3.07;2.87;;;15.00;99.90;;;;;;5012261;28;20488;-71
2021/08/29 04:58:47;;;;;;;3.00;2.00;;;15.00;99.90;;;;;;5012419;28;20413;-71
2021/08/29 05:01:13;;;;;;;2.20;2.00;;;15.00;99.90;;;;;;5011776;28;20241;-71
2021/08/29 05:03:38;;;;;;;2.30;1.77;;;15.00;99.90;;;;;;5012116;28;20202;-71
2021/08/29 05:06:04;;;;;;;2.70;2.50;;;15.10;99.90;;;;;;4994222;28;20210;-70
2021/08/29 05:08:30;;;;;;;2.73;2.53;;;15.10;99.90;;;;;;5011861;28;20196;-72
2021/08/29 05:10:55;;;;;;;3.37;3.07;;;15.00;99.90;;;;;;5011852;28;20252;-71
2021/08/29 05:13:21;;;;;;;4.53;2.67;;;15.00;99.90;;;;;;5011026;28;20646;-71
2021/08/29 05:15:46;;;;;;;2.67;2.47;;;15.10;99.90;;;;;;5012381;28;20589;-72
2021/08/29 05:18:11;;;;;;;3.03;2.73;;;15.10;99.90;;;;;;5012202;28;20196;-71
2021/08/29 05:20:37;;;;;;;3.30;3.00;;;15.10;99.90;;;;;;5012101;28;20229;-70
2021/08/29 05:23:02;;;;;;;3.37;3.07;;;15.10;99.90;;;;;;5011809;28;20194;-71
2021/08/29 05:25:29;;;;;;;4.10;3.33;;;15.10;99.90;;;;;;5011808;28;20184;-70
2021/08/29 05:27:55;;;;;;;3.40;2.97;;;15.10;99.90;;;;;;5011538;28;20196;-70
2021/08/29 05:30:20;;;;;;;3.20;3.00;;;15.10;99.90;;;;;;5011532;28;20436;-70
2021/08/29 05:32:46;;;;;;;3.77;3.47;;;15.10;99.90;;;;;;5011385;28;20193;-70
2021/08/29 05:35:11;;;;;;;4.10;3.70;;;15.10;99.90;;;;;;5011533;28;20647;-70
2021/08/29 05:37:37;;;;;;;5.33;3.40;;;15.10;99.90;;;;;;5011630;28;20531;-70
2021/08/29 05:40:03;;;;;;;5.20;4.70;;;15.20;99.90;;;;;;5011681;28;20181;-70
2021/08/29 05:42:28;;;;;;;3.90;3.60;;;15.10;99.90;;;;;;5011316;28;20207;-70
2021/08/29 05:44:54;;;;;;;4.17;3.80;;;15.10;99.90;;;;;;5011464;28;20776;-70
2021/08/29 05:47:19;;;;;;;4.50;3.50;;;15.10;99.90;;;;;;5011445;28;20173;-71
2021/08/29 05:49:44;;;;;;;5.87;4.50;;;15.10;99.90;;;;;;5011557;28;20168;-70
2021/08/29 05:52:10;;;;;;;4.77;4.30;;;15.10;99.90;;;;;;5011320;28;20188;-71
2021/08/29 05:54:36;;;;;;;6.20;4.23;;;15.10;99.90;;;;;;5011652;28;20716;-70
2021/08/29 05:57:01;;;;;;;4.80;4.30;;;15.00;99.90;;;;;;5011306;28;20168;-70
2021/08/29 05:59:27;;;;;;;5.03;4.63;;;15.10;99.90;;;;;;5011389;28;20218;-70
2021/08/29 06:01:52;;;;;;;4.40;4.00;;;15.10;99.90;;;;;;5011068;28;20727;-69
2021/08/29 06:04:17;;;;;;;4.83;4.30;;;15.20;99.90;;;;;;5011348;28;20177;-71
2021/08/29 06:06:43;;;;;;;7.93;4.50;;;15.20;99.90;;;;;;5011160;28;20164;-71
2021/08/29 06:09:08;;;;;;;5.43;4.93;;;15.20;99.90;;;;;;5011277;28;20644;-71
2021/08/29 06:11:34;;;;;;;5.10;4.37;;;15.20;99.90;;;;;;5011220;28;20322;-71
2021/08/29 06:13:59;;;;;;;5.23;4.40;;;15.20;99.90;;;;;;5011220;28;20200;-71
2021/08/29 06:16:25;;;;;;;4.70;4.20;;;15.20;99.90;;;;;;5011092;28;20263;-71
2021/08/29 06:18:51;;;;;;;5.40;4.90;;;15.20;99.90;;;;;;5011214;28;20226;-71
2021/08/29 06:21:18;;;;;;;5.40;4.90;;;15.20;99.90;;;;;;5011020;28;20295;-71
2021/08/29 06:23:43;;;;;;;5.03;4.57;;;15.20;99.90;;;;;;5011091;28;20180;-70
2021/08/29 06:26:08;;;;;;;5.07;4.57;;;15.30;99.90;;;;;;5014145;28;20799;-71
2021/08/29 06:28:34;;;;;;;4.73;4.33;;;15.20;99.90;;;;;;5014817;28;20200;-71
2021/08/29 06:30:59;;;;;;;4.37;3.97;;;15.20;99.90;;;;;;5014848;28;20169;-71
2021/08/29 06:33:25;;;;;;;4.90;4.33;;;15.20;99.90;;;;;;5015170;28;20230;-70
2021/08/29 06:35:51;;;;;;;5.73;4.27;;;15.20;99.90;;;;;;5014879;28;20206;-71
2021/08/29 06:38:16;;;;;;;5.50;3.70;;;15.20;99.90;;;;;;5014579;28;20247;-71
2021/08/29 06:40:41;;;;;;;4.07;3.67;;;15.10;99.90;;;;;;5014513;28;20733;-69
2021/08/29 06:43:07;;;;;;;4.57;4.17;;;15.20;99.90;;;;;;5014396;28;20231;-70
2021/08/29 06:45:32;;;;;;;4.93;4.40;;;15.10;99.90;;;;;;5014390;28;20178;-70
2021/08/29 06:47:58;;;;;;;4.37;3.97;;;15.20;99.90;;;;;;5014381;28;20180;-70
2021/08/29 06:50:23;;;;;;;4.33;3.90;;;15.10;99.90;;;;;;5014681;28;20176;-70
2021/08/29 06:52:49;;;;;;;3.80;3.50;;;15.20;99.90;;;;;;5014324;28;20193;-70
2021/08/29 06:55:14;;;;;;;5.13;4.10;;;15.20;99.90;;;;;;5014527;28;20210;-70
2021/08/29 06:57:40;;;;;;;4.53;4.13;;;15.20;99.90;;;;;;5015011;28;20164;-70
2021/08/29 07:00:06;;;;;;;4.73;4.00;;;15.20;99.90;;;;;;5014470;28;20173;-70
2021/08/29 07:02:31;;;;;;;4.83;4.07;;;15.30;99.90;;;;;;5014065;28;20262;-70
2021/08/29 07:04:57;;;;;;;5.10;4.07;;;15.30;99.90;;;;;;5014336;28;20407;-70
2021/08/29 07:07:22;;;;;;;4.30;3.90;;;15.30;99.90;;;;;;5014255;28;20545;-70
2021/08/29 07:09:48;;;;;;;4.63;3.30;;;15.30;99.90;;;;;;5014350;28;20164;-70
2021/08/29 07:12:14;;;;;;;3.20;2.90;;;15.30;99.90;;;;;;5014040;28;20206;-70
2021/08/29 07:14:40;;;;;;;3.10;2.80;;;15.30;99.90;;;;;;5014348;28;20662;-71
2021/08/29 07:17:05;;;;;;;3.27;3.00;;;15.30;99.90;;;;;;5013884;28;20435;-71
2021/08/29 07:19:31;;;;;;;3.17;2.97;;;15.40;99.90;;;;;;5014133;28;20177;-71
2021/08/29 07:21:56;;;;;;;3.43;2.90;;;15.40;99.90;;;;;;5013790;28;20219;-71
2021/08/29 07:24:22;;;;;;;4.47;2.47;;;15.40;99.90;;;;;;5013879;28;20224;-70
2021/08/29 07:26:48;;;;;;;3.60;3.30;;;15.40;99.90;;;;;;5013874;28;20169;-71
2021/08/29 07:29:14;;;;;;;3.70;3.23;;;15.40;99.90;;;;;;5013992;28;20252;-71
2021/08/29 07:31:40;;;;;;;2.90;2.60;;;15.50;99.90;;;;;;5014612;28;20828;-70
2021/08/29 07:34:05;;;;;;;3.63;3.33;;;15.40;99.90;;;;;;5014669;28;20190;-70
2021/08/29 07:36:31;;;;;;;3.40;3.10;;;15.50;99.90;;;;;;5013368;28;20427;-70
2021/08/29 07:38:56;;;;;;;3.93;3.27;;;15.50;99.90;;;;;;5014241;28;20183;-70
2021/08/29 07:41:22;;;;;;;3.10;2.80;;;15.50;99.90;;;;;;5013990;28;20289;-71
2021/08/29 07:43:48;;;;;;;3.67;3.17;;;15.50;99.90;;;;;;5013870;28;20203;-71
2021/08/29 07:46:13;;;;;;;3.50;3.20;;;15.50;99.90;;;;;;5013909;28;20168;-71
2021/08/29 07:48:39;;;;;;;5.00;3.80;;;15.60;99.90;;;;;;5013751;28;20256;-71
2021/08/29 07:51:04;;;;;;;6.20;3.80;;;15.50;99.90;;;;;;5013785;28;20172;-70
2021/08/29 07:53:30;;;;;;;4.60;3.63;;;15.30;99.90;;;;;;5013714;28;20196;-70
2021/08/29 07:55:55;;;;;;;5.17;4.67;;;15.50;99.90;;;;;;4996073;28;20177;-70
2021/08/29 07:58:21;;;;;;;6.80;4.60;;;15.60;99.90;;;;;;5013529;28;20204;-70
2021/08/29 08:00:47;;;;;;;5.00;4.60;;;15.60;99.90;;;;;;5013812;28;20207;-70
2021/08/29 08:03:12;;;;;;;5.03;4.60;;;15.60;99.90;;;;;;5013544;28;20196;-70
2021/08/29 08:05:38;;;;;;;6.07;5.20;;;15.60;99.90;;;;;;5013751;28;20248;-70
2021/08/29 08:08:03;;;;;;;6.90;6.20;;;15.60;99.90;;;;;;5013614;28;20247;-70
2021/08/29 08:10:31;;;;;;;6.07;5.40;;;15.60;99.90;;;;;;5015925;28;20173;-71
2021/08/29 08:12:56;;;;;;;5.23;4.73;;;15.70;99.90;;;;;;5016026;28;20246;-71
2021/08/29 08:15:22;;;;;;;5.67;5.10;;;15.70;99.90;;;;;;5016211;28;20407;-71
2021/08/29 08:17:48;;;;;;;4.60;4.13;;;15.70;99.90;;;;;;5015920;28;20185;-70
2021/08/29 08:20:13;;;;;;;4.90;4.07;;;15.70;99.90;;;;;;5013234;28;20177;-70
2021/08/29 08:22:40;;;;;;;5.20;4.70;;;15.90;99.90;;;;;;5013400;28;20221;-70
2021/08/29 08:25:07;;;;;;;4.27;3.73;;;15.90;99.90;;;;;;4995645;28;20703;-70
2021/08/29 08:27:32;;;;;;;4.00;3.20;;;16.10;99.90;;;;;;5012881;28;20463;-71
2021/08/29 08:29:58;;;;;;;5.33;4.83;;;16.20;99.90;;;;;;5013173;28;20414;-71
2021/08/29 08:32:23;;;;;;;4.63;3.77;;;16.30;99.90;;;;;;5012813;28;20193;-72
2021/08/29 08:34:49;;;;;;;3.90;3.50;;;16.40;99.90;;;;;;5013224;28;20647;-71
2021/08/29 08:37:15;;;;;;;3.80;3.40;;;16.40;99.90;;;;;;5012830;28;20200;-71
2021/08/29 08:39:41;;;;;;;3.33;3.03;;;16.50;99.90;;;;;;5012821;28;20429;-71
2021/08/29 08:42:06;;;;;;;3.80;3.40;;;16.50;99.90;;;;;;5012630;28;20209;-71
2021/08/29 08:44:32;;;;;;;4.53;3.83;;;16.70;99.90;;;;;;5013811;28;20165;-71
2021/08/29 08:47:04;;;;;;;3.43;3.13;;;16.60;99.90;;;;;;5012969;28;20165;-71
2021/08/29 08:49:31;;;;;;;3.10;2.80;;;16.70;99.90;;;;;;5012756;28;20490;-71
2021/08/29 08:52:02;;;;;;;3.30;3.03;;;17.10;99.90;;;;;;5012666;28;20857;-71
2021/08/29 08:54:29;;;;;;;3.20;2.90;;;17.40;99.90;;;;;;5012615;28;20458;-70
2021/08/29 08:56:56;;;;;;;3.10;2.80;;;17.60;99.90;;;;;;5012583;28;20410;-70
2021/08/29 08:59:21;;;;;;;4.40;3.90;;;17.70;99.90;;;;;;5012704;28;20503;-70
2021/08/29 09:01:47;;;;;;;2.60;2.40;;;17.60;99.90;;;;;;5012442;28;20535;-70
2021/08/29 09:04:13;;;;;;;2.70;2.50;;;17.60;99.90;;;;;;5012524;28;20169;-70
2021/08/29 09:06:38;;;;;;;2.90;2.23;;;17.80;99.90;;;;;;5012455;28;20176;-70
2021/08/29 09:09:04;;;;;;;2.63;2.43;;;18.00;99.90;;;;;;5012352;28;20249;-70
2021/08/29 09:11:34;;;;;;;2.20;2.10;;;17.80;99.90;;;;;;5012435;28;20173;-70
2021/08/29 09:14:03;;;;;;;2.13;1.97;;;18.00;99.90;;;;;;5013355;28;20501;-70
2021/08/29 09:16:29;;;;;;;2.13;1.93;;;18.40;99.90;;;;;;5013077;28;20442;-71
2021/08/29 09:18:59;;;;;;;2.13;1.80;;;18.80;99.90;;;;;;5012364;28;20413;-71
2021/08/29 09:21:28;;;;;;;1.90;1.77;;;18.90;99.90;;;;;;5012269;28;20482;-71
2021/08/29 09:23:56;;;;;;;3.20;2.60;;;19.20;99.90;;;;;;5012166;28;20430;-71
2021/08/29 09:26:23;;;;;;;2.20;1.90;;;18.40;99.90;;;;;;5012277;28;20765;-71
2021/08/29 09:28:49;;;;;;;1.70;1.60;;;18.40;99.90;;;;;;5012170;28;21045;-71
2021/08/29 09:31:17;;;;;;;1.70;1.60;;;19.20;99.90;;;;;;5012380;28;20930;-71
2021/08/29 09:33:44;;;;;;;2.00;1.90;;;18.80;99.90;;;;;;5012268;28;20524;-71
2021/08/29 09:36:10;;;;;;;1.60;1.50;;;19.60;99.90;;;;;;5011816;28;20416;-71
2021/08/29 09:38:41;;;;;;;1.77;1.67;;;19.60;99.90;;;;;;5011559;28;20431;-71
2021/08/29 09:41:26;;;;;;;1.73;1.30;;;20.10;99.90;;;;;;5011517;28;20457;-71
2021/08/29 09:43:52;;;;;;;1.53;1.43;;;19.80;99.90;;;;;;5011775;28;20431;-72
2021/08/29 09:46:24;;;;;;;1.20;1.10;;;19.60;99.90;;;;;;5010721;28;20402;-71
2021/08/29 09:48:56;;;;;;;1.57;1.47;;;19.20;99.90;;;;;;5010605;28;20183;-71
2021/08/29 09:51:24;;;;;;;1.40;1.30;;;19.60;99.90;;;;;;5011654;28;20410;-71
2021/08/29 09:53:49;;;;;;;1.30;1.20;;;19.50;99.90;;;;;;5011885;28;20796;-72
2021/08/29 09:56:29;;;;;;;1.50;1.40;;;19.40;99.90;;;;;;5011806;28;20404;-70
2021/08/29 09:58:56;;;;;;;2.77;1.50;;;18.60;99.90;;;;;;5026008;28;20172;-70
2021/08/29 10:01:23;;;;;;;1.73;1.63;;;18.40;99.90;;;;;;5013516;28;20451;-70
2021/08/29 10:03:52;;;;;;;1.77;1.57;;;18.40;99.90;;;;;;5015295;28;20506;-71
2021/08/29 10:06:18;;;;;;;1.50;1.40;;;18.40;99.90;;;;;;5015365;28;20412;-71
2021/08/29 10:08:50;;;;;;;1.20;1.10;;;18.80;99.90;;;;;;5015133;28;20409;-71
2021/08/29 10:11:17;;;;;;;1.33;1.23;;;19.10;99.90;;;;;;5015443;28;20499;-71
2021/08/29 10:13:52;;;;;;;1.47;1.37;;;19.10;99.90;;;;;;5015239;28;20519;-71
2021/08/29 10:16:27;;;;;;;2.00;1.37;;;19.20;99.90;;;;;;5014279;28;20449;-71
2021/08/29 10:18:57;;;;;;;1.50;1.40;;;18.90;99.90;;;;;;5015641;28;20978;-71
2021/08/29 10:21:27;;;;;;;3.10;0.87;;;19.20;99.90;;;;;;5030211;28;20532;-71
2021/08/29 10:23:59;;;;;;;1.40;1.30;;;19.40;99.90;;;;;;5015676;28;20449;-71
2021/08/29 10:26:26;;;;;;;1.07;0.97;;;20.00;99.90;;;;;;5030396;28;20489;-71
2021/08/29 10:29:00;;;;;;;2.03;0.90;;;20.70;99.90;;;;;;5015616;28;20507;-70
2021/08/29 10:31:32;;;;;;;0.80;0.77;;;20.50;99.90;;;;;;5015494;28;20414;-70
2021/08/29 10:34:01;;;;;;;0.80;0.80;;;20.00;99.90;;;;;;5030564;28;20452;-71
2021/08/29 10:36:27;;;;;;;0.70;0.70;;;20.00;99.90;;;;;;5015199;28;20444;-71
2021/08/29 10:39:11;;;;;;;0.83;0.80;;;19.80;99.90;;;;;;5015137;28;20420;-71
2021/08/29 10:41:39;;;;;;;1.43;0.80;;;19.70;99.90;;;;;;5013464;28;20210;-71
2021/08/29 10:44:08;;;;;;;0.93;0.83;;;19.40;99.90;;;;;;5015622;28;20468;-71
2021/08/29 10:46:44;;;;;;;0.80;0.80;;;19.50;99.90;;;;;;5014188;28;20468;-71
2021/08/29 10:49:15;;;;;;;0.83;0.83;;;19.30;99.90;;;;;;5015201;28;20422;-71
2021/08/29 10:51:41;;;;;;;1.83;1.10;;;19.70;99.90;;;;;;5015381;28;20448;-71
2021/08/29 10:54:14;;;;;;;1.00;0.80;;;19.90;99.90;;;;;;5015353;28;20933;-71
2021/08/29 10:56:41;;;;;;;0.97;0.80;;;19.80;99.90;;;;;;5015198;28;21137;-71
2021/08/29 10:59:10;;;;;;;0.80;0.80;;;20.40;99.90;;;;;;5014177;28;20410;-71
2021/08/29 11:01:37;;;;;;;0.90;0.83;;;20.50;99.90;;;;;;5014878;28;20460;-70
2021/08/29 11:04:34;;;;;;;1.00;0.90;;;20.50;99.90;;;;;;5016175;28;20978;-71
2021/08/29 11:07:03;;;;;;;1.10;1.00;;;20.60;99.90;;;;;;5019916;28;20407;-72
2021/08/29 11:09:35;;;;;;;1.33;1.00;;;20.30;99.90;;;;;;5033937;28;20505;-71
2021/08/29 11:12:26;;;;;;;1.00;0.80;;;19.70;99.90;;;;;;5015558;28;20469;-72
2021/08/29 11:14:56;;;;;;;1.00;0.90;;;19.80;99.90;;;;;;5008202;28;20415;-71
2021/08/29 11:17:21;;;;;;;1.13;0.90;;;19.80;99.90;;;;;;5029706;28;20801;-71
2021/08/29 11:19:49;;;;;;;1.53;0.90;;;20.60;99.90;;;;;;5014963;28;20406;-71
2021/08/29 11:22:21;;;;;;;0.83;0.80;;;21.10;99.90;;;;;;5014740;28;20787;-71
2021/08/29 11:25:11;;;;;;;0.80;0.80;;;21.20;99.90;;;;;;5014488;28;20758;-71
2021/08/29 11:27:56;;;;;;;1.10;1.00;;;21.40;99.90;;;;;;5014950;28;20412;-71
2021/08/29 11:30:40;;;;;;;1.60;0.80;;;20.50;99.90;;;;;;5014703;28;20435;-71
2021/08/29 11:33:21;;;;;;;0.80;0.77;;;20.60;99.90;;;;;;5014546;28;20468;-71
2021/08/29 11:35:54;;;;;;;0.90;0.80;;;20.40;99.90;;;;;;5014615;28;20413;-71
2021/08/29 11:38:22;;;;;;;1.30;0.73;;;20.60;99.90;;;;;;5014723;28;20432;-70
2021/08/29 11:41:09;;;;;;;1.03;0.93;;;20.60;99.90;;;;;;5014715;28;20900;-70
2021/08/29 11:43:37;;;;;;;1.10;0.70;;;20.80;99.90;;;;;;5014462;28;20444;-71
2021/08/29 11:46:12;;;;;;;1.03;0.80;;;21.10;99.90;;;;;;5014339;28;20428;-71
2021/08/29 11:48:52;;;;;;;1.00;0.70;;;21.30;99.90;;;;;;5014231;28;20933;-71
2021/08/29 11:51:30;;;;;;;0.80;0.80;;;20.50;99.90;;;;;;5014801;28;20505;-70
2021/08/29 11:53:57;;;;;;;1.03;0.90;;;20.10;99.90;;;;;;5014767;28;20438;-70
2021/08/29 11:56:28;;;;;;;1.53;1.43;;;20.70;99.90;;;;;;5016493;28;20404;-71
2021/08/29 11:58:55;;;;;;;0.87;0.87;;;20.80;99.90;;;;;;5017102;28;20441;-71
2021/08/29 12:01:21;;;;;;;1.20;1.10;;;20.60;99.90;;;;;;5031522;28;20486;-70
2021/08/29 12:03:53;;;;;;;0.80;0.77;;;20.60;99.90;;;;;;5016076;28;20461;-70
2021/08/29 12:06:30;;;;;;;2.30;0.90;;;20.80;99.90;;;;;;5014213;28;20780;-71
2021/08/29 12:09:13;;;;;;;1.10;1.00;;;21.10;99.90;;;;;;5013583;28;20416;-70
2021/08/29 12:11:43;;;;;;;0.70;0.70;;;21.10;99.90;;;;;;5014423;28;20410;-71
2021/08/29 12:14:13;;;;;;;0.90;0.90;;;21.10;99.90;;;;;;5013911;28;20433;-71
2021/08/29 12:16:44;;;;;;;0.90;0.80;;;21.10;99.90;;;;;;5013368;28;20486;-71
2021/08/29 12:19:19;;;;;;;0.97;0.90;;;21.20;99.90;;;;;;5013745;28;20492;-71
2021/08/29 12:21:51;;;;;;;1.10;1.00;;;21.20;99.90;;;;;;5028319;28;20448;-70
2021/08/29 12:24:25;;;;;;;0.80;0.77;;;20.90;99.90;;;;;;5013197;28;20408;-71
2021/08/29 12:27:09;;;;;;;0.83;0.80;;;20.90;99.90;;;;;;5013199;28;20432;-70
2021/08/29 12:29:48;;;;;;;0.80;0.70;;;20.80;99.90;;;;;;5013447;28;20494;-71
2021/08/29 12:32:16;;;;;;;0.80;0.80;;;20.10;99.90;;;;;;5013134;28;20432;-71
2021/08/29 12:34:42;;;;;;;0.70;0.70;;;20.50;99.90;;;;;;5013154;28;20413;-71
2021/08/29 12:37:22;;;;;;;;;;;;;;;;;;;;;
2021/08/29 12:40:09;;;;;;;1.10;1.00;;;20.30;99.90;;;;;;5010282;28;20826;-71
2021/08/29 12:42:37;;;;;;;1.93;0.90;;;20.50;99.90;;;;;;5013064;28;20452;-71
2021/08/29 12:45:11;;;;;;;1.23;0.90;;;20.30;99.90;;;;;;5013130;28;20789;-71
2021/08/29 12:47:42;;;;;;;0.70;0.60;;;20.10;99.90;;;;;;5012797;28;21079;-71
2021/08/29 12:50:12;;;;;;;2.40;0.93;;;20.20;99.90;;;;;;5012801;28;20760;-71
2021/08/29 12:52:47;;;;;;;2.07;1.27;;;19.60;99.90;;;;;;5012827;28;20478;-71